sensor_id;sensor_type;location;lat;lon;timestamp;pressure;altitude;pressure_sealevel;temperature;humidity
48216;BME280;34005;48.844;10.098;2023-04-09T00:01:43;97315.03;;;7.62;70.18
48216;BME280;34005;48.844;10.098;2023-04-09T00:04:10;97320.38;;;7.60;69.68
48216;BME280;34005;48.844;10.098;2023-04-09T00:06:38;97312.75;;;7.59;69.60
48216;BME280;34005;48.844;10.098;2023-04-09T00:09:05;97311.41;;;7.55;69.96
48216;BME280;34005;48.844;10.098;2023-04-09T00:11:34;97320.13;;;7.54;69.57
48216;BME280;34005;48.844;10.098;2023-04-09T00:14:02;97308.94;;;7.53;69.11
48216;BME280;34005;48.844;10.098;2023-04-09T00:16:29;97311.66;;;7.52;68.59
48216;BME280;34005;48.844;10.098;2023-04-09T00:18:57;97312.78;;;7.49;68.85
48216;BME280;34005;48.844;10.098;2023-04-09T00:21:24;97309.22;;;7.50;68.79
48216;BME280;34005;48.844;10.098;2023-04-09T00:23:52;97312.63;;;7.51;68.42
48216;BME280;34005;48.844;10.098;2023-04-09T00:26:19;97306.78;;;7.49;68.47
48216;BME280;34005;48.844;10.098;2023-04-09T00:28:49;97309.50;;;7.47;68.92
48216;BME280;34005;48.844;10.098;2023-04-09T00:31:17;97312.91;;;7.48;68.84
48216;BME280;34005;48.844;10.098;2023-04-09T00:33:46;97311.97;;;7.49;69.07
48216;BME280;34005;48.844;10.098;2023-04-09T00:36:13;97315.50;;;7.48;68.74
48216;BME280;34005;48.844;10.098;2023-04-09T00:38:41;97308.84;;;7.45;69.29
48216;BME280;34005;48.844;10.098;2023-04-09T00:41:09;97314.03;;;7.45;69.07
48216;BME280;34005;48.844;10.098;2023-04-09T00:43:36;97304.47;;;7.46;68.84
48216;BME280;34005;48.844;10.098;2023-04-09T00:46:05;97299.28;;;7.46;69.05
48216;BME280;34005;48.844;10.098;2023-04-09T00:48:33;97307.06;;;7.46;69.25
48216;BME280;34005;48.844;10.098;2023-04-09T00:51:01;97305.56;;;7.43;69.46
48216;BME280;34005;48.844;10.098;2023-04-09T00:53:28;97312.53;;;7.42;69.46
48216;BME280;34005;48.844;10.098;2023-04-09T00:55:57;97321.31;;;7.41;69.30
48216;BME280;34005;48.844;10.098;2023-04-09T00:58:24;97317.19;;;7.39;69.40
48216;BME280;34005;48.844;10.098;2023-04-09T01:00:52;97312.84;;;7.39;69.65
48216;BME280;34005;48.844;10.098;2023-04-09T01:03:21;97319.78;;;7.39;69.63
48216;BME280;34005;48.844;10.098;2023-04-09T01:05:53;97323.22;;;7.39;69.87
48216;BME280;34005;48.844;10.098;2023-04-09T01:08:31;97325.94;;;7.38;69.76
48216;BME280;34005;48.844;10.098;2023-04-09T01:11:05;97324.34;;;7.37;70.26
48216;BME280;34005;48.844;10.098;2023-04-09T01:13:41;97319.94;;;7.37;69.67
48216;BME280;34005;48.844;10.098;2023-04-09T01:16:11;97319.94;;;7.37;69.23
48216;BME280;34005;48.844;10.098;2023-04-09T01:18:44;97316.69;;;7.35;69.68
48216;BME280;34005;48.844;10.098;2023-04-09T01:21:18;97311.75;;;7.32;69.85
48216;BME280;34005;48.844;10.098;2023-04-09T01:23:54;97306.88;;;7.29;69.75
48216;BME280;34005;48.844;10.098;2023-04-09T01:26:36;97312.34;;;7.26;69.88
48216;BME280;34005;48.844;10.098;2023-04-09T01:29:09;97303.06;;;7.23;69.63
48216;BME280;34005;48.844;10.098;2023-04-09T01:31:38;97305.81;;;7.22;69.76
48216;BME280;34005;48.844;10.098;2023-04-09T01:34:07;97306.50;;;7.24;69.77
48216;BME280;34005;48.844;10.098;2023-04-09T01:36:38;97300.31;;;7.25;69.65
48216;BME280;34005;48.844;10.098;2023-04-09T01:39:06;97304.56;;;7.26;69.55
48216;BME280;34005;48.844;10.098;2023-04-09T01:41:35;97308.78;;;7.27;69.19
48216;BME280;34005;48.844;10.098;2023-04-09T01:44:04;97307.16;;;7.26;69.15
48216;BME280;34005;48.844;10.098;2023-04-09T01:46:35;97308.25;;;7.23;69.46
48216;BME280;34005;48.844;10.098;2023-04-09T01:49:06;97304.03;;;7.22;69.31
48216;BME280;34005;48.844;10.098;2023-04-09T01:51:34;97304.16;;;7.21;69.58
48216;BME280;34005;48.844;10.098;2023-04-09T01:54:02;97306.63;;;7.22;69.77
48216;BME280;34005;48.844;10.098;2023-04-09T01:56:39;97296.78;;;7.26;69.39
48216;BME280;34005;48.844;10.098;2023-04-09T01:59:06;97302.34;;;7.31;69.45
48216;BME280;34005;48.844;10.098;2023-04-09T02:01:38;97303.69;;;7.35;69.01
48216;BME280;34005;48.844;10.098;2023-04-09T02:04:11;97305.31;;;7.36;69.80
48216;BME280;34005;48.844;10.098;2023-04-09T02:06:46;97308.59;;;7.38;69.50
48216;BME280;34005;48.844;10.098;2023-04-09T02:09:16;97305.72;;;7.41;69.36
48216;BME280;34005;48.844;10.098;2023-04-09T02:11:46;97301.88;;;7.46;69.26
48216;BME280;34005;48.844;10.098;2023-04-09T02:14:15;97301.59;;;7.49;68.60
48216;BME280;34005;48.844;10.098;2023-04-09T02:16:45;97298.00;;;7.50;69.16
48216;BME280;34005;48.844;10.098;2023-04-09T02:19:13;97297.75;;;7.53;68.29
48216;BME280;34005;48.844;10.098;2023-04-09T02:21:40;97296.94;;;7.52;68.84
48216;BME280;34005;48.844;10.098;2023-04-09T02:24:09;97297.75;;;7.53;68.49
48216;BME280;34005;48.844;10.098;2023-04-09T02:26:37;97296.09;;;7.52;68.57
48216;BME280;34005;48.844;10.098;2023-04-09T02:29:04;97297.06;;;7.51;68.70
48216;BME280;34005;48.844;10.098;2023-04-09T02:31:32;97290.91;;;7.52;68.13
48216;BME280;34005;48.844;10.098;2023-04-09T02:34:01;97294.34;;;7.52;68.26
48216;BME280;34005;48.844;10.098;2023-04-09T02:36:28;97290.91;;;7.52;67.99
48216;BME280;34005;48.844;10.098;2023-04-09T02:38:56;97294.59;;;7.49;68.06
48216;BME280;34005;48.844;10.098;2023-04-09T02:41:23;97287.63;;;7.50;68.24
48216;BME280;34005;48.844;10.098;2023-04-09T02:43:51;97293.00;;;7.48;68.23
48216;BME280;34005;48.844;10.098;2023-04-09T02:46:19;97281.75;;;7.48;68.18
48216;BME280;34005;48.844;10.098;2023-04-09T02:48:46;97288.47;;;7.50;68.21
48216;BME280;34005;48.844;10.098;2023-04-09T02:51:15;97295.84;;;7.45;68.17
48216;BME280;34005;48.844;10.098;2023-04-09T02:53:43;97306.00;;;7.38;68.03
48216;BME280;34005;48.844;10.098;2023-04-09T02:56:10;97303.16;;;7.32;68.18
48216;BME280;34005;48.844;10.098;2023-04-09T02:58:38;97301.97;;;7.26;68.31
48216;BME280;34005;48.844;10.098;2023-04-09T03:01:06;97295.28;;;7.23;69.30
48216;BME280;34005;48.844;10.098;2023-04-09T03:03:33;97304.56;;;7.26;69.32
48216;BME280;34005;48.844;10.098;2023-04-09T03:06:03;97300.06;;;7.28;69.67
48216;BME280;34005;48.844;10.098;2023-04-09T03:08:32;97298.78;;;7.32;70.23
48216;BME280;34005;48.844;10.098;2023-04-09T03:10:59;97296.72;;;7.36;70.20
48216;BME280;34005;48.844;10.098;2023-04-09T03:13:27;97290.44;;;7.38;70.27
48216;BME280;34005;48.844;10.098;2023-04-09T03:15:54;97293.41;;;7.43;70.08
48216;BME280;34005;48.844;10.098;2023-04-09T03:18:22;97294.91;;;7.46;69.90
48216;BME280;34005;48.844;10.098;2023-04-09T03:20:49;97292.00;;;7.49;70.13
48216;BME280;34005;48.844;10.098;2023-04-09T03:23:17;97295.28;;;7.51;69.68
48216;BME280;34005;48.844;10.098;2023-04-09T03:25:46;97295.16;;;7.53;69.52
48216;BME280;34005;48.844;10.098;2023-04-09T03:28:13;97290.91;;;7.52;69.48
48216;BME280;34005;48.844;10.098;2023-04-09T03:30:41;97292.53;;;7.53;69.70
48216;BME280;34005;48.844;10.098;2023-04-09T03:33:08;97281.19;;;7.54;69.97
48216;BME280;34005;48.844;10.098;2023-04-09T03:35:36;97293.34;;;7.53;69.30
48216;BME280;34005;48.844;10.098;2023-04-09T03:38:03;97290.91;;;7.52;69.00
48216;BME280;34005;48.844;10.098;2023-04-09T03:40:31;97289.56;;;7.48;68.37
48216;BME280;34005;48.844;10.098;2023-04-09T03:43:00;97287.03;;;7.38;68.38
48216;BME280;34005;48.844;10.098;2023-04-09T03:45:29;97287.72;;;7.30;68.60
48216;BME280;34005;48.844;10.098;2023-04-09T03:47:57;97292.41;;;7.27;69.24
48216;BME280;34005;48.844;10.098;2023-04-09T03:50:25;97289.28;;;7.23;68.61
48216;BME280;34005;48.844;10.098;2023-04-09T03:52:53;97288.22;;;7.16;67.87
48216;BME280;34005;48.844;10.098;2023-04-09T03:55:21;97288.09;;;7.08;67.80
48216;BME280;34005;48.844;10.098;2023-04-09T03:57:49;97298.78;;;7.05;67.76
48216;BME280;34005;48.844;10.098;2023-04-09T04:00:18;97292.66;;;6.96;67.84
48216;BME280;34005;48.844;10.098;2023-04-09T04:02:45;97290.94;;;6.87;67.72
48216;BME280;34005;48.844;10.098;2023-04-09T04:05:13;97290.94;;;6.77;67.59
48216;BME280;34005;48.844;10.098;2023-04-09T04:07:41;97299.44;;;6.69;67.89
48216;BME280;34005;48.844;10.098;2023-04-09T04:10:10;97301.34;;;6.57;67.91
48216;BME280;34005;48.844;10.098;2023-04-09T04:12:38;97305.75;;;6.47;68.19
48216;BME280;34005;48.844;10.098;2023-04-09T04:15:07;97296.19;;;6.38;68.62
48216;BME280;34005;48.844;10.098;2023-04-09T04:17:37;97298.50;;;6.31;68.63
48216;BME280;34005;48.844;10.098;2023-04-09T04:20:06;97302.50;;;6.26;68.71
48216;BME280;34005;48.844;10.098;2023-04-09T04:22:34;97301.13;;;6.22;68.65
48216;BME280;34005;48.844;10.098;2023-04-09T04:25:02;97296.50;;;6.15;68.68
48216;BME280;34005;48.844;10.098;2023-04-09T04:27:30;97301.28;;;6.10;69.11
48216;BME280;34005;48.844;10.098;2023-04-09T04:29:58;97302.50;;;6.06;69.13
48216;BME280;34005;48.844;10.098;2023-04-09T04:32:27;97312.56;;;6.00;69.46
48216;BME280;34005;48.844;10.098;2023-04-09T04:34:57;97313.09;;;5.93;69.79
48216;BME280;34005;48.844;10.098;2023-04-09T04:37:25;97305.03;;;5.87;69.68
48216;BME280;34005;48.844;10.098;2023-04-09T04:39:52;97307.22;;;5.82;69.52
48216;BME280;34005;48.844;10.098;2023-04-09T04:42:20;97308.44;;;5.77;69.69
48216;BME280;34005;48.844;10.098;2023-04-09T04:44:48;97316.59;;;5.73;69.71
48216;BME280;34005;48.844;10.098;2023-04-09T04:47:16;97309.22;;;5.68;70.07
48216;BME280;34005;48.844;10.098;2023-04-09T04:49:44;97309.50;;;5.65;70.61
48216;BME280;34005;48.844;10.098;2023-04-09T04:52:13;97323.41;;;5.64;70.82
48216;BME280;34005;48.844;10.098;2023-04-09T04:54:43;97313.28;;;5.61;70.54
48216;BME280;34005;48.844;10.098;2023-04-09T04:57:10;97318.47;;;5.61;71.18
48216;BME280;34005;48.844;10.098;2023-04-09T04:59:38;97314.94;;;5.62;70.58
48216;BME280;34005;48.844;10.098;2023-04-09T05:02:06;97312.59;;;5.59;70.92
48216;BME280;34005;48.844;10.098;2023-04-09T05:04:34;97315.59;;;5.54;71.13
48216;BME280;34005;48.844;10.098;2023-04-09T05:07:02;97313.41;;;5.50;70.66
48216;BME280;34005;48.844;10.098;2023-04-09T05:09:30;97316.41;;;5.45;70.89
48216;BME280;34005;48.844;10.098;2023-04-09T05:11:58;97316.91;;;5.39;71.09
48216;BME280;34005;48.844;10.098;2023-04-09T05:14:26;97315.41;;;5.36;71.32
48216;BME280;34005;48.844;10.098;2023-04-09T05:16:54;97315.00;;;5.31;71.15
48216;BME280;34005;48.844;10.098;2023-04-09T05:19:22;97321.22;;;5.29;71.32
48216;BME280;34005;48.844;10.098;2023-04-09T05:21:49;97321.22;;;5.29;71.52
48216;BME280;34005;48.844;10.098;2023-04-09T05:24:17;97321.38;;;5.27;71.67
48216;BME280;34005;48.844;10.098;2023-04-09T05:26:46;97324.91;;;5.26;71.66
48216;BME280;34005;48.844;10.098;2023-04-09T05:29:14;97327.38;;;5.28;72.18
48216;BME280;34005;48.844;10.098;2023-04-09T05:31:42;97318.53;;;5.30;71.97
48216;BME280;34005;48.844;10.098;2023-04-09T05:34:10;97317.59;;;5.31;71.63
48216;BME280;34005;48.844;10.098;2023-04-09T05:36:38;97320.84;;;5.33;71.62
48216;BME280;34005;48.844;10.098;2023-04-09T05:39:05;97320.59;;;5.36;71.93
48216;BME280;34005;48.844;10.098;2023-04-09T05:41:33;97320.59;;;5.36;71.58
48216;BME280;34005;48.844;10.098;2023-04-09T05:44:04;97328.91;;;5.40;71.94
48216;BME280;34005;48.844;10.098;2023-04-09T05:46:32;97328.38;;;5.46;72.40
48216;BME280;34005;48.844;10.098;2023-04-09T05:48:59;97344.34;;;5.51;71.93
48216;BME280;34005;48.844;10.098;2023-04-09T05:51:27;97352.63;;;5.55;71.78
48216;BME280;34005;48.844;10.098;2023-04-09T05:53:55;97347.22;;;5.58;71.55
48216;BME280;34005;48.844;10.098;2023-04-09T05:56:22;97351.88;;;5.64;71.68
48216;BME280;34005;48.844;10.098;2023-04-09T05:58:50;97362.34;;;5.72;71.67
48216;BME280;34005;48.844;10.098;2023-04-09T06:01:19;97353.41;;;5.86;72.04
48216;BME280;34005;48.844;10.098;2023-04-09T06:03:47;97360.00;;;6.00;71.72
48216;BME280;34005;48.844;10.098;2023-04-09T06:06:15;97355.66;;;6.20;70.94
48216;BME280;34005;48.844;10.098;2023-04-09T06:08:43;97358.38;;;6.38;70.29
48216;BME280;34005;48.844;10.098;2023-04-09T06:11:10;97359.75;;;6.52;70.37
48216;BME280;34005;48.844;10.098;2023-04-09T06:13:38;97370.66;;;6.65;69.91
48216;BME280;34005;48.844;10.098;2023-04-09T06:16:07;97365.59;;;6.83;70.10
48216;BME280;34005;48.844;10.098;2023-04-09T06:18:36;97375.25;;;7.00;68.91
48216;BME280;34005;48.844;10.098;2023-04-09T06:21:05;97358.56;;;7.13;67.61
48216;BME280;34005;48.844;10.098;2023-04-09T06:23:34;97356.75;;;7.23;68.12
48216;BME280;34005;48.844;10.098;2023-04-09T06:26:02;97360.41;;;7.30;67.57
48216;BME280;34005;48.844;10.098;2023-04-09T06:28:30;97367.63;;;7.36;66.90
48216;BME280;34005;48.844;10.098;2023-04-09T06:30:59;97368.97;;;7.40;66.14
48216;BME280;34005;48.844;10.098;2023-04-09T06:33:27;97367.44;;;7.48;65.97
48216;BME280;34005;48.844;10.098;2023-04-09T06:35:57;97367.34;;;7.67;66.51
48216;BME280;34005;48.844;10.098;2023-04-09T06:38:25;97372.97;;;7.90;65.73
48216;BME280;34005;48.844;10.098;2023-04-09T06:40:54;97377.38;;;8.08;65.05
48216;BME280;34005;48.844;10.098;2023-04-09T06:43:22;97375.47;;;8.28;64.70
48216;BME280;34005;48.844;10.098;2023-04-09T06:45:50;97381.50;;;8.46;64.02
48216;BME280;34005;48.844;10.098;2023-04-09T06:48:18;97378.75;;;8.65;63.52
48216;BME280;34005;48.844;10.098;2023-04-09T06:50:46;97385.69;;;8.83;62.82
48216;BME280;34005;48.844;10.098;2023-04-09T06:53:16;97377.16;;;8.91;61.31
48216;BME280;34005;48.844;10.098;2023-04-09T06:55:44;97381.97;;;9.03;61.15
48216;BME280;34005;48.844;10.098;2023-04-09T06:58:11;97379.38;;;9.12;60.61
48216;BME280;34005;48.844;10.098;2023-04-09T07:00:39;97382.22;;;9.18;59.76
48216;BME280;34005;48.844;10.098;2023-04-09T07:03:07;97386.97;;;9.23;59.49
48216;BME280;34005;48.844;10.098;2023-04-09T07:05:35;97376.63;;;9.39;60.69
48216;BME280;34005;48.844;10.098;2023-04-09T07:08:03;97385.03;;;9.59;59.26
48216;BME280;34005;48.844;10.098;2023-04-09T07:10:32;97373.50;;;9.70;59.48
48216;BME280;34005;48.844;10.098;2023-04-09T07:13:00;97381.88;;;9.90;59.64
48216;BME280;34005;48.844;10.098;2023-04-09T07:15:27;97379.00;;;10.09;59.34
48216;BME280;34005;48.844;10.098;2023-04-09T07:17:55;97377.41;;;10.25;58.20
48216;BME280;34005;48.844;10.098;2023-04-09T07:20:23;97387.41;;;10.38;57.70
48216;BME280;34005;48.844;10.098;2023-04-09T07:22:50;97376.19;;;10.45;57.35
48216;BME280;34005;48.844;10.098;2023-04-09T07:25:18;97382.53;;;10.51;57.11
48216;BME280;34005;48.844;10.098;2023-04-09T07:27:48;97387.41;;;10.62;56.01
48216;BME280;34005;48.844;10.098;2023-04-09T07:30:16;97387.59;;;10.77;56.31
48216;BME280;34005;48.844;10.098;2023-04-09T07:32:45;97397.53;;;10.90;55.63
48216;BME280;34005;48.844;10.098;2023-04-09T07:35:14;97402.94;;;11.05;56.12
48216;BME280;34005;48.844;10.098;2023-04-09T07:37:44;97404.53;;;11.22;54.80
48216;BME280;34005;48.844;10.098;2023-04-09T07:40:13;97399.75;;;11.34;55.05
48216;BME280;34005;48.844;10.098;2023-04-09T07:42:42;97401.72;;;11.48;54.60
48216;BME280;34005;48.844;10.098;2023-04-09T07:45:12;97397.41;;;11.64;53.85
48216;BME280;34005;48.844;10.098;2023-04-09T07:47:42;97400.28;;;11.85;53.28
48216;BME280;34005;48.844;10.098;2023-04-09T07:50:11;97400.22;;;12.02;52.65
48216;BME280;34005;48.844;10.098;2023-04-09T07:52:40;97394.59;;;12.13;52.23
48216;BME280;34005;48.844;10.098;2023-04-09T07:55:09;97392.88;;;12.28;52.02
48216;BME280;34005;48.844;10.098;2023-04-09T07:57:38;97398.47;;;12.48;51.52
48216;BME280;34005;48.844;10.098;2023-04-09T08:00:08;97407.41;;;13.00;50.73
48216;BME280;34005;48.844;10.098;2023-04-09T08:02:38;97406.16;;;14.66;47.43
48216;BME280;34005;48.844;10.098;2023-04-09T08:05:08;97406.31;;;15.71;44.40
48216;BME280;34005;48.844;10.098;2023-04-09T08:07:37;97397.00;;;16.98;41.89
48216;BME280;34005;48.844;10.098;2023-04-09T08:10:07;97401.66;;;18.07;38.82
48216;BME280;34005;48.844;10.098;2023-04-09T08:12:41;97399.09;;;19.03;37.49
48216;BME280;34005;48.844;10.098;2023-04-09T08:15:13;97395.09;;;19.81;35.63
48216;BME280;34005;48.844;10.098;2023-04-09T08:17:45;97400.50;;;19.49;35.20
48216;BME280;34005;48.844;10.098;2023-04-09T08:20:19;97395.59;;;20.08;34.69
48216;BME280;34005;48.844;10.098;2023-04-09T08:22:55;97393.16;;;20.97;33.43
48216;BME280;34005;48.844;10.098;2023-04-09T08:25:23;97392.59;;;21.66;32.42
48216;BME280;34005;48.844;10.098;2023-04-09T08:27:51;97392.94;;;22.21;31.20
48216;BME280;34005;48.844;10.098;2023-04-09T08:30:18;97385.41;;;22.76;30.67
48216;BME280;34005;48.844;10.098;2023-04-09T08:32:47;97387.63;;;23.30;29.19
48216;BME280;34005;48.844;10.098;2023-04-09T08:35:15;97400.94;;;23.85;29.01
48216;BME280;34005;48.844;10.098;2023-04-09T08:37:43;97400.38;;;23.83;28.55
48216;BME280;34005;48.844;10.098;2023-04-09T08:40:11;97398.44;;;24.01;28.31
48216;BME280;34005;48.844;10.098;2023-04-09T08:42:42;97398.25;;;23.47;27.14
48216;BME280;34005;48.844;10.098;2023-04-09T08:45:11;97394.16;;;22.02;29.48
48216;BME280;34005;48.844;10.098;2023-04-09T08:47:39;97392.16;;;21.57;30.75
48216;BME280;34005;48.844;10.098;2023-04-09T08:50:09;97387.56;;;20.75;31.89
48216;BME280;34005;48.844;10.098;2023-04-09T08:52:37;97389.44;;;19.95;32.85
48216;BME280;34005;48.844;10.098;2023-04-09T08:55:06;97385.31;;;20.90;31.48
48216;BME280;34005;48.844;10.098;2023-04-09T08:57:36;97399.59;;;20.29;31.39
48216;BME280;34005;48.844;10.098;2023-04-09T09:00:05;97385.94;;;19.58;32.62
48216;BME280;34005;48.844;10.098;2023-04-09T09:02:33;97385.31;;;18.94;33.39
48216;BME280;34005;48.844;10.098;2023-04-09T09:05:01;97395.41;;;19.72;32.69
48216;BME280;34005;48.844;10.098;2023-04-09T09:07:30;97392.75;;;21.47;31.00
48216;BME280;34005;48.844;10.098;2023-04-09T09:09:59;97396.50;;;23.01;28.93
48216;BME280;34005;48.844;10.098;2023-04-09T09:12:34;97392.78;;;23.19;26.62
48216;BME280;34005;48.844;10.098;2023-04-09T09:15:02;97398.13;;;21.64;28.84
48216;BME280;34005;48.844;10.098;2023-04-09T09:17:30;97388.34;;;20.03;30.98
48216;BME280;34005;48.844;10.098;2023-04-09T09:19:58;97387.84;;;18.76;33.51
48216;BME280;34005;48.844;10.098;2023-04-09T09:22:25;97383.66;;;17.91;34.09
48216;BME280;34005;48.844;10.098;2023-04-09T09:24:54;97393.69;;;17.49;35.76
48216;BME280;34005;48.844;10.098;2023-04-09T09:27:32;97387.00;;;18.57;34.96
48216;BME280;34005;48.844;10.098;2023-04-09T09:30:02;97380.03;;;18.30;34.39
48216;BME280;34005;48.844;10.098;2023-04-09T09:32:32;97389.19;;;17.83;35.19
48216;BME280;34005;48.844;10.098;2023-04-09T09:35:01;97389.78;;;19.19;33.06
48216;BME280;34005;48.844;10.098;2023-04-09T09:37:29;97381.13;;;20.83;31.34
48216;BME280;34005;48.844;10.098;2023-04-09T09:39:59;97382.56;;;21.09;29.27
48216;BME280;34005;48.844;10.098;2023-04-09T09:42:27;97382.44;;;21.27;29.24
48216;BME280;34005;48.844;10.098;2023-04-09T09:44:55;97381.38;;;21.40;28.23
48216;BME280;34005;48.844;10.098;2023-04-09T09:47:22;97380.34;;;20.52;28.97
48216;BME280;34005;48.844;10.098;2023-04-09T09:49:51;97381.25;;;19.42;30.47
48216;BME280;34005;48.844;10.098;2023-04-09T09:52:24;97382.22;;;18.72;31.40
48216;BME280;34005;48.844;10.098;2023-04-09T09:54:52;97385.97;;;19.14;31.06
48216;BME280;34005;48.844;10.098;2023-04-09T09:57:24;97373.44;;;18.46;31.29
48216;BME280;34005;48.844;10.098;2023-04-09T09:59:54;97370.50;;;17.78;32.92
48216;BME280;34005;48.844;10.098;2023-04-09T10:02:26;97377.56;;;17.90;32.96
48216;BME280;34005;48.844;10.098;2023-04-09T10:04:59;97358.41;;;18.08;32.51
48216;BME280;34005;48.844;10.098;2023-04-09T10:07:27;97369.72;;;17.64;32.84
48216;BME280;34005;48.844;10.098;2023-04-09T10:09:57;97361.09;;;17.10;33.52
48216;BME280;34005;48.844;10.098;2023-04-09T10:12:28;97352.53;;;17.41;33.48
48216;BME280;34005;48.844;10.098;2023-04-09T10:14:56;97358.84;;;17.27;33.06
48216;BME280;34005;48.844;10.098;2023-04-09T10:17:29;97355.59;;;16.72;33.77
48216;BME280;34005;48.844;10.098;2023-04-09T10:20:01;97359.19;;;16.24;34.14
48216;BME280;34005;48.844;10.098;2023-04-09T10:22:33;97359.34;;;16.16;34.80
48216;BME280;34005;48.844;10.098;2023-04-09T10:25:02;97355.91;;;16.09;35.12
48216;BME280;34005;48.844;10.098;2023-04-09T10:27:31;97365.31;;;15.83;33.76
48216;BME280;34005;48.844;10.098;2023-04-09T10:29:59;97363.69;;;15.47;34.09
48216;BME280;34005;48.844;10.098;2023-04-09T10:32:33;97361.44;;;15.09;33.52
48216;BME280;34005;48.844;10.098;2023-04-09T10:35:02;97350.13;;;14.80;33.96
48216;BME280;34005;48.844;10.098;2023-04-09T10:37:30;97347.41;;;14.67;34.87
48216;BME280;34005;48.844;10.098;2023-04-09T10:39:58;97344.50;;;14.62;35.04
48216;BME280;34005;48.844;10.098;2023-04-09T10:42:31;97342.63;;;14.56;34.83
48216;BME280;34005;48.844;10.098;2023-04-09T10:45:09;97346.25;;;14.76;35.10
48216;BME280;34005;48.844;10.098;2023-04-09T10:47:38;97342.53;;;15.20;35.10
48216;BME280;34005;48.844;10.098;2023-04-09T10:50:17;97343.53;;;15.61;33.09
48216;BME280;34005;48.844;10.098;2023-04-09T10:52:46;97348.00;;;15.60;33.09
48216;BME280;34005;48.844;10.098;2023-04-09T10:55:31;97335.47;;;15.62;33.55
48216;BME280;34005;48.844;10.098;2023-04-09T10:58:01;97337.28;;;16.03;34.06
48216;BME280;34005;48.844;10.098;2023-04-09T11:00:29;97340.16;;;16.28;33.83
48216;BME280;34005;48.844;10.098;2023-04-09T11:03:24;97333.91;;;16.63;33.86
48216;BME280;34005;48.844;10.098;2023-04-09T11:05:56;97339.22;;;16.89;33.12
48216;BME280;34005;48.844;10.098;2023-04-09T11:08:27;97337.38;;;17.10;32.83
48216;BME280;34005;48.844;10.098;2023-04-09T11:10:55;97329.03;;;17.26;32.57
48216;BME280;34005;48.844;10.098;2023-04-09T11:13:25;97334.88;;;17.42;32.02
48216;BME280;34005;48.844;10.098;2023-04-09T11:15:53;97330.78;;;17.53;32.44
48216;BME280;34005;48.844;10.098;2023-04-09T11:18:22;97332.78;;;17.57;30.28
48216;BME280;34005;48.844;10.098;2023-04-09T11:20:53;97339.50;;;17.53;30.91
48216;BME280;34005;48.844;10.098;2023-04-09T11:23:21;97327.38;;;17.45;31.45
48216;BME280;34005;48.844;10.098;2023-04-09T11:25:50;97333.28;;;17.41;32.55
48216;BME280;34005;48.844;10.098;2023-04-09T11:28:18;97319.84;;;17.49;31.62
48216;BME280;34005;48.844;10.098;2023-04-09T11:30:49;97325.09;;;17.56;31.56
48216;BME280;34005;48.844;10.098;2023-04-09T11:33:16;97322.16;;;17.77;30.68
48216;BME280;34005;48.844;10.098;2023-04-09T11:35:46;97309.56;;;17.86;30.58
48216;BME280;34005;48.844;10.098;2023-04-09T11:38:13;97324.94;;;18.02;30.92
48216;BME280;34005;48.844;10.098;2023-04-09T11:40:42;97329.78;;;18.05;29.75
48216;BME280;34005;48.844;10.098;2023-04-09T11:43:14;97322.94;;;17.98;30.19
48216;BME280;34005;48.844;10.098;2023-04-09T11:45:43;97329.81;;;17.99;30.20
48216;BME280;34005;48.844;10.098;2023-04-09T11:48:14;97329.00;;;17.98;30.07
48216;BME280;34005;48.844;10.098;2023-04-09T11:50:43;97329.19;;;18.03;30.69
48216;BME280;34005;48.844;10.098;2023-04-09T11:53:16;97337.06;;;18.10;29.83
48216;BME280;34005;48.844;10.098;2023-04-09T11:55:46;97334.66;;;18.08;29.93
48216;BME280;34005;48.844;10.098;2023-04-09T11:58:13;97332.28;;;17.94;30.62
48216;BME280;34005;48.844;10.098;2023-04-09T12:00:41;97341.25;;;17.73;30.60
48216;BME280;34005;48.844;10.098;2023-04-09T12:03:10;97332.81;;;17.50;30.79
48216;BME280;34005;48.844;10.098;2023-04-09T12:05:44;97328.94;;;17.53;31.28
48216;BME280;34005;48.844;10.098;2023-04-09T12:08:22;97327.72;;;17.62;31.53
48216;BME280;34005;48.844;10.098;2023-04-09T12:10:50;97328.34;;;17.51;31.58
48216;BME280;34005;48.844;10.098;2023-04-09T12:13:20;97330.66;;;17.27;32.00
48216;BME280;34005;48.844;10.098;2023-04-09T12:15:48;97335.53;;;17.24;32.52
48216;BME280;34005;48.844;10.098;2023-04-09T12:18:16;97333.69;;;17.24;32.03
48216;BME280;34005;48.844;10.098;2023-04-09T12:20:46;97327.44;;;17.12;31.45
48216;BME280;34005;48.844;10.098;2023-04-09T12:23:15;97328.06;;;16.81;32.30
48216;BME280;34005;48.844;10.098;2023-04-09T12:25:43;97324.00;;;16.58;32.52
48216;BME280;34005;48.844;10.098;2023-04-09T12:28:13;97331.69;;;16.46;32.85
48216;BME280;34005;48.844;10.098;2023-04-09T12:30:43;97342.19;;;16.33;32.15
48216;BME280;34005;48.844;10.098;2023-04-09T12:33:11;97324.09;;;16.03;32.82
48216;BME280;34005;48.844;10.098;2023-04-09T12:35:38;97335.56;;;15.82;33.30
48216;BME280;34005;48.844;10.098;2023-04-09T12:38:07;97336.94;;;15.72;33.45
48216;BME280;34005;48.844;10.098;2023-04-09T12:40:35;97325.16;;;15.68;33.90
48216;BME280;34005;48.844;10.098;2023-04-09T12:43:03;97336.47;;;15.61;33.59
48216;BME280;34005;48.844;10.098;2023-04-09T12:45:31;97325.06;;;15.48;33.88
48216;BME280;34005;48.844;10.098;2023-04-09T12:47:59;97324.03;;;15.42;33.46
48216;BME280;34005;48.844;10.098;2023-04-09T12:50:27;97329.66;;;15.39;33.55
48216;BME280;34005;48.844;10.098;2023-04-09T12:52:54;97324.63;;;15.37;33.93
48216;BME280;34005;48.844;10.098;2023-04-09T12:55:23;97329.91;;;15.44;34.36
48216;BME280;34005;48.844;10.098;2023-04-09T12:57:51;97322.63;;;15.39;33.34
48216;BME280;34005;48.844;10.098;2023-04-09T13:00:18;97328.00;;;15.24;33.49
48216;BME280;34005;48.844;10.098;2023-04-09T13:02:46;97321.50;;;15.20;33.92
48216;BME280;34005;48.844;10.098;2023-04-09T13:05:14;97317.06;;;15.28;34.21